createdAt,value
2019-05-19T00:01:04.870Z,96660.53
2019-05-19T00:03:36.535Z,96656.25
2019-05-19T00:06:08.240Z,96659.03
2019-05-19T00:08:40.062Z,96656.09
2019-05-19T00:11:11.713Z,96662.80
2019-05-19T00:13:43.474Z,96654.59
2019-05-19T00:16:16.958Z,96665.38
2019-05-19T00:18:48.966Z,96664.89
2019-05-19T00:21:20.889Z,96668.16
2019-05-19T00:23:52.536Z,96671.14
2019-05-19T00:26:27.008Z,96671.94
2019-05-19T00:28:59.067Z,96670.81
2019-05-19T00:31:31.814Z,96668.38
2019-05-19T00:34:03.564Z,96674.28
2019-05-19T00:36:36.598Z,96663.83
2019-05-19T00:39:08.590Z,96672.31
2019-05-19T00:41:40.228Z,96665.77
2019-05-19T00:44:11.768Z,96667.22
2019-05-19T00:46:44.224Z,96671.30
2019-05-19T00:49:18.834Z,96683.05
2019-05-19T00:51:50.796Z,96675.40
2019-05-19T00:54:27.731Z,96677.84
2019-05-19T00:56:59.620Z,96681.28
2019-05-19T00:59:31.815Z,96682.89
2019-05-19T01:02:03.411Z,96682.89
2019-05-19T01:04:35.067Z,96675.06
2019-05-19T01:07:06.682Z,96672.63
2019-05-19T01:09:38.618Z,96677.20
2019-05-19T01:12:10.253Z,96673.25
2019-05-19T01:14:41.955Z,96676.03
2019-05-19T01:17:13.726Z,96680.94
2019-05-19T01:19:55.618Z,96678.66
2019-05-19T01:22:19.978Z,96680.30
2019-05-19T01:24:51.755Z,96686.34
2019-05-19T01:27:23.866Z,96698.90
2019-05-19T01:29:55.623Z,96696.94
2019-05-19T01:32:27.496Z,96698.41
2019-05-19T01:34:59.659Z,96699.41
2019-05-19T01:37:32.088Z,96696.80
2019-05-19T01:40:05.512Z,96707.24
2019-05-19T01:42:37.415Z,96702.81
2019-05-19T01:45:11.271Z,96693.19
2019-05-19T01:47:43.289Z,96694.50
2019-05-19T01:50:18.038Z,96697.77
2019-05-19T01:52:50.237Z,96695.14
2019-05-19T01:55:22.267Z,96693.84
2019-05-19T01:57:54.373Z,96693.51
2019-05-19T02:00:26.540Z,96688.30
2019-05-19T02:02:58.332Z,96692.21
2019-05-19T02:05:30.181Z,96699.39
2019-05-19T02:08:01.987Z,96699.56
2019-05-19T02:10:35.054Z,96696.30
2019-05-19T02:13:06.826Z,96695.30
2019-05-19T02:15:38.676Z,96696.61
2019-05-19T02:18:10.355Z,96695.48
2019-05-19T02:20:42.581Z,96696.47
2019-05-19T02:23:14.552Z,96704.13
2019-05-19T02:25:46.333Z,96707.40
2019-05-19T02:28:18.380Z,96701.18
2019-05-19T02:30:50.768Z,96707.57
2019-05-19T02:33:23.189Z,96714.10
2019-05-19T02:35:55.375Z,96710.66
2019-05-19T02:38:27.115Z,96716.54
2019-05-19T02:41:02.117Z,96710.97
2019-05-19T02:43:35.968Z,96714.23
2019-05-19T02:46:17.998Z,96713.89
2019-05-19T02:49:03.955Z,96717.67
2019-05-19T02:51:39.697Z,96719.94
2019-05-19T02:54:21.787Z,96711.76
2019-05-19T02:57:05.880Z,96714.54
2019-05-19T02:59:51.725Z,96714.36
2019-05-19T03:02:36.273Z,96716.19
2019-05-19T03:05:17.591Z,96722.38
2019-05-19T03:08:01.010Z,96718.28
2019-05-19T03:10:44.740Z,96727.89
2019-05-19T03:13:19.573Z,96727.42
2019-05-19T03:15:52.984Z,96732.98
2019-05-19T03:18:40.656Z,96733.95
2019-05-19T03:21:24.967Z,96739.52
2019-05-19T03:24:08.270Z,96740.52
2019-05-19T03:26:48.682Z,96741.84
2019-05-19T03:29:28.678Z,96739.87
2019-05-19T03:32:21.270Z,96742.83
2019-05-19T03:34:58.719Z,96742.83
2019-05-19T03:37:30.477Z,96747.73
2019-05-19T03:40:04.380Z,96748.11
2019-05-19T03:42:36.505Z,96746.45
2019-05-19T03:45:08.161Z,96753.32
2019-05-19T03:47:39.882Z,96752.34
2019-05-19T03:50:12.066Z,96758.53
2019-05-19T03:52:44.055Z,96764.10
2019-05-19T03:55:15.982Z,96759.67
2019-05-19T03:57:47.826Z,96759.33
2019-05-19T04:00:20.039Z,96758.84
2019-05-19T04:02:51.838Z,96766.19
2019-05-19T04:05:25.920Z,96759.80
2019-05-19T04:07:57.938Z,96768.13
2019-05-19T04:10:30.310Z,96765.32
2019-05-19T04:13:02.122Z,96768.72
2019-05-19T04:15:33.780Z,96772.61
2019-05-19T04:18:05.680Z,96772.13
2019-05-19T04:20:37.267Z,96769.83
2019-05-19T04:23:09.489Z,96768.13
2019-05-19T04:25:41.177Z,96772.14
2019-05-19T04:28:12.702Z,96777.33
2019-05-19T04:30:45.616Z,96776.31
2019-05-19T04:33:17.766Z,96775.95
2019-05-19T04:35:50.556Z,96775.53
2019-05-19T04:38:22.465Z,96776.11
2019-05-19T04:40:55.838Z,96773.45
2019-05-19T04:43:28.063Z,96778.59
2019-05-19T04:45:59.752Z,96779.88
2019-05-19T04:48:32.114Z,96778.30
2019-05-19T04:51:05.731Z,96781.82
2019-05-19T04:53:37.450Z,96787.28
2019-05-19T04:56:09.604Z,96793.23
2019-05-19T04:58:41.455Z,96791.50
2019-05-19T05:01:13.227Z,96799.52
2019-05-19T05:03:44.990Z,96796.62
2019-05-19T05:06:16.797Z,96798.67
2019-05-19T05:08:50.542Z,96805.23
2019-05-19T05:11:25.208Z,96810.23
2019-05-19T05:14:04.084Z,96812.21
2019-05-19T05:16:37.839Z,96814.55
2019-05-19T05:19:10.172Z,96812.44
2019-05-19T05:21:42.942Z,96812.69
2019-05-19T05:24:22.201Z,96814.70
2019-05-19T05:26:54.199Z,96814.48
2019-05-19T05:29:25.963Z,96820.55
2019-05-19T05:32:06.916Z,96816.13
2019-05-19T05:34:50.520Z,96820.64
2019-05-19T05:37:42.630Z,96826.10
2019-05-19T05:40:14.529Z,96828.23
2019-05-19T05:42:46.244Z,96829.16
2019-05-19T05:45:19.144Z,96826.00
2019-05-19T05:47:51.112Z,96830.46
2019-05-19T05:50:22.853Z,96837.87
2019-05-19T05:53:09.568Z,96839.34
2019-05-19T05:55:54.246Z,96849.36
2019-05-19T05:58:40.357Z,96838.42
2019-05-19T06:01:12.884Z,96840.72
2019-05-19T06:03:57.973Z,96846.85
2019-05-19T06:06:45.993Z,96841.42
2019-05-19T06:09:26.633Z,96844.13
2019-05-19T06:12:01.125Z,96848.06
2019-05-19T06:14:33.064Z,96849.20
2019-05-19T06:17:10.204Z,96844.00
2019-05-19T06:19:53.731Z,96848.01
2019-05-19T06:22:36.950Z,96850.37
2019-05-19T06:25:11.418Z,96850.40
2019-05-19T06:27:54.202Z,96851.25
2019-05-19T06:30:38.418Z,96858.64
2019-05-19T06:33:22.705Z,96861.95
2019-05-19T06:36:04.674Z,96865.92
2019-05-19T06:38:59.361Z,96863.67
2019-05-19T06:41:45.056Z,96866.81
2019-05-19T06:44:27.098Z,96872.47
2019-05-19T06:47:07.411Z,96872.84
2019-05-19T06:49:43.229Z,96878.23
2019-05-19T06:52:27.740Z,96881.63
2019-05-19T06:55:08.276Z,96885.13
2019-05-19T06:57:45.212Z,96883.70
2019-05-19T07:00:18.749Z,96879.42
2019-05-19T07:02:50.535Z,96884.21
2019-05-19T07:05:22.493Z,96889.57
2019-05-19T07:07:57.008Z,96887.27
2019-05-19T07:10:47.571Z,96892.83
2019-05-19T07:13:24.832Z,96891.84
2019-05-19T07:16:11.498Z,96896.69
2019-05-19T07:18:59.966Z,96899.88
2019-05-19T07:21:37.956Z,96898.50
2019-05-19T07:24:09.731Z,96904.48
2019-05-19T07:26:41.977Z,96902.80
2019-05-19T07:29:21.895Z,96904.53
2019-05-19T07:31:55.400Z,96906.52
2019-05-19T07:34:27.155Z,96904.58
2019-05-19T07:37:00.190Z,96908.09
2019-05-19T07:39:38.213Z,96912.61
2019-05-19T07:42:25.727Z,96910.52
2019-05-19T07:45:05.963Z,96911.16
2019-05-19T07:47:50.447Z,96916.42
2019-05-19T07:50:37.976Z,96918.33
2019-05-19T07:53:19.412Z,96909.63
2019-05-19T07:55:52.481Z,96913.91
2019-05-19T07:58:24.291Z,96913.03
2019-05-19T08:00:56.152Z,96920.58
2019-05-19T08:03:35.703Z,96918.25
2019-05-19T08:06:20.836Z,96928.05
2019-05-19T08:09:02.199Z,96926.58
2019-05-19T08:11:51.747Z,96925.25
2019-05-19T08:14:40.421Z,96925.08
2019-05-19T08:17:18.114Z,96916.14
2019-05-19T08:19:59.321Z,96928.87
2019-05-19T08:22:42.683Z,96932.66
2019-05-19T08:25:16.618Z,96931.41
2019-05-19T08:27:48.495Z,96936.14
2019-05-19T08:30:20.972Z,96928.35
2019-05-19T08:33:03.187Z,96934.81
2019-05-19T08:35:45.711Z,96929.30
2019-05-19T08:38:21.536Z,96929.08
2019-05-19T08:40:57.124Z,96928.63
2019-05-19T08:43:32.814Z,96925.81
2019-05-19T08:46:04.497Z,96921.77
2019-05-19T08:48:36.683Z,96930.23
2019-05-19T08:51:08.700Z,96934.80
2019-05-19T08:53:41.293Z,96935.17
2019-05-19T08:56:12.902Z,96919.93
2019-05-19T08:58:47.169Z,96925.83
2019-05-19T09:01:18.878Z,96914.37
2019-05-19T09:03:50.429Z,96918.49
2019-05-19T09:06:24.350Z,96922.33
2019-05-19T09:08:56.154Z,96926.69
2019-05-19T09:11:27.645Z,96925.56
2019-05-19T09:13:59.284Z,96925.93
2019-05-19T09:16:39.939Z,96925.26
2019-05-19T09:19:11.670Z,96927.45
2019-05-19T09:21:43.374Z,96915.56
2019-05-19T09:24:29.559Z,96922.37
2019-05-19T09:26:51.121Z,96918.74
2019-05-19T09:29:22.960Z,96912.59
2019-05-19T09:31:54.586Z,96915.47
2019-05-19T09:34:26.522Z,96917.06
2019-05-19T09:36:58.904Z,96931.68
2019-05-19T09:39:30.907Z,96934.91
2019-05-19T09:42:02.569Z,96931.27
2019-05-19T09:44:34.130Z,96934.53
2019-05-19T09:47:11.150Z,96937.20
2019-05-19T09:49:44.084Z,96939.12
2019-05-19T09:52:17.192Z,96947.27
2019-05-19T09:54:50.651Z,96941.36
2019-05-19T09:57:25.528Z,96936.97
2019-05-19T09:59:56.276Z,96938.45
2019-05-19T10:02:28.061Z,96936.89
2019-05-19T10:05:00.607Z,96933.83
2019-05-19T10:07:34.454Z,96931.24
2019-05-19T10:10:08.060Z,96936.94
2019-05-19T10:12:39.978Z,96930.38
2019-05-19T10:15:13.134Z,96926.07
2019-05-19T10:17:44.858Z,96924.30
2019-05-19T10:20:17.761Z,96934.14
2019-05-19T10:22:49.343Z,96927.54
2019-05-19T10:25:22.950Z,96931.22
2019-05-19T10:27:54.728Z,96929.54
2019-05-19T10:30:26.430Z,96933.50
2019-05-19T10:32:58.822Z,96928.72
2019-05-19T10:35:30.696Z,96936.89
2019-05-19T10:38:02.393Z,96927.55
2019-05-19T10:40:34.097Z,96930.53
2019-05-19T10:43:07.435Z,96929.95
2019-05-19T10:45:40.850Z,96937.91
2019-05-19T10:48:12.847Z,96928.41
2019-05-19T10:50:44.494Z,96928.64
2019-05-19T10:53:16.172Z,96929.09
2019-05-19T10:55:48.096Z,96926.66
2019-05-19T10:58:26.348Z,96925.62
2019-05-19T11:00:58.764Z,96921.06
2019-05-19T11:03:30.643Z,96930.19
2019-05-19T11:06:21.136Z,96923.41
2019-05-19T11:08:52.814Z,96927.86
2019-05-19T11:11:24.641Z,96924.09
2019-05-19T11:13:56.639Z,96923.52
2019-05-19T11:16:28.322Z,96925.30
2019-05-19T11:18:59.864Z,96915.17
2019-05-19T11:21:34.069Z,96917.43
2019-05-19T11:24:06.285Z,96920.84
2019-05-19T11:26:38.534Z,96918.44
2019-05-19T11:29:10.580Z,96915.78
2019-05-19T11:31:44.625Z,96913.38
2019-05-19T11:34:16.309Z,96916.68
2019-05-19T11:36:47.935Z,96919.16
2019-05-19T11:39:20.672Z,96922.25
2019-05-19T11:41:52.307Z,96916.44
2019-05-19T11:44:24.068Z,96922.45
2019-05-19T11:46:56.164Z,96918.83
2019-05-19T11:49:27.695Z,96917.56
2019-05-19T11:51:59.544Z,96920.09
2019-05-19T11:54:31.094Z,96922.36
2019-05-19T11:57:02.733Z,96919.96
2019-05-19T11:59:34.492Z,96922.00
2019-05-19T12:02:06.232Z,96917.72
2019-05-19T12:04:37.810Z,96919.62
2019-05-19T12:07:09.567Z,96926.38
2019-05-19T12:09:41.295Z,96923.61
2019-05-19T12:12:13.102Z,96923.84
2019-05-19T12:14:44.744Z,96922.22
2019-05-19T12:17:17.419Z,96915.70
2019-05-19T12:19:49.365Z,96913.42
2019-05-19T12:22:20.942Z,96915.63
2019-05-19T12:24:52.684Z,96909.02
2019-05-19T12:27:24.265Z,96916.08
2019-05-19T12:29:56.036Z,96916.72
2019-05-19T12:32:27.588Z,96917.48
2019-05-19T12:34:59.209Z,96911.95
2019-05-19T12:37:30.950Z,96917.02
2019-05-19T12:40:02.490Z,96908.61
2019-05-19T12:42:34.228Z,96914.22
2019-05-19T12:45:06.441Z,96905.75
2019-05-19T12:47:38.068Z,96910.05
2019-05-19T12:50:10.239Z,96914.03
2019-05-19T12:52:41.912Z,96917.13
2019-05-19T12:55:14.111Z,96908.66
2019-05-19T12:57:45.598Z,96913.30
2019-05-19T13:00:17.368Z,96910.13
2019-05-19T13:02:51.270Z,96915.20
2019-05-19T13:05:22.738Z,96912.13
2019-05-19T13:07:54.563Z,96912.36
2019-05-19T13:10:26.242Z,96913.84
2019-05-19T13:12:57.880Z,96912.92
2019-05-19T13:15:29.812Z,96914.25
2019-05-19T13:18:01.361Z,96913.05
2019-05-19T13:20:32.979Z,96919.44
2019-05-19T13:23:04.689Z,96913.09
2019-05-19T13:25:36.625Z,96909.23
2019-05-19T13:28:08.392Z,96911.34
2019-05-19T13:30:43.442Z,96913.55
2019-05-19T13:33:13.626Z,96916.61
2019-05-19T13:35:45.407Z,96920.81
2019-05-19T13:38:17.055Z,96920.16
2019-05-19T13:40:48.624Z,96923.14
2019-05-19T13:43:20.281Z,96920.30
2019-05-19T13:45:52.212Z,96926.88
2019-05-19T13:48:24.035Z,96927.12
2019-05-19T13:50:55.737Z,96928.22
2019-05-19T13:53:27.540Z,96926.76
2019-05-19T13:55:59.127Z,96930.50
2019-05-19T13:58:30.797Z,96925.92
2019-05-19T14:01:02.599Z,96930.36
2019-05-19T14:03:34.539Z,96928.03
2019-05-19T14:06:06.215Z,96924.88
2019-05-19T14:08:37.748Z,96929.94
2019-05-19T14:11:09.435Z,96920.53
2019-05-19T14:13:41.236Z,96924.64
2019-05-19T14:16:12.908Z,96922.63
2019-05-19T14:18:44.795Z,96928.52
2019-05-19T14:21:16.805Z,96925.97
2019-05-19T14:23:48.493Z,96926.83
2019-05-19T14:26:20.209Z,96927.52
2019-05-19T14:28:51.702Z,96921.86
2019-05-19T14:31:23.698Z,96925.50
2019-05-19T14:33:55.505Z,96920.13
2019-05-19T14:36:27.103Z,96915.91
2019-05-19T14:39:05.246Z,96917.83
2019-05-19T14:41:39.813Z,96911.80
2019-05-19T14:44:11.570Z,96913.38
2019-05-19T14:46:43.324Z,96910.81
2019-05-19T14:49:14.898Z,96905.31
2019-05-19T14:51:46.556Z,96895.10
2019-05-19T14:54:18.433Z,96898.81
2019-05-19T14:56:50.281Z,96899.73
2019-05-19T14:59:22.123Z,96899.04
2019-05-19T15:01:53.931Z,96888.67
2019-05-19T15:04:30.811Z,96887.37
2019-05-19T15:07:02.640Z,96882.53
2019-05-19T15:09:34.527Z,96891.28
2019-05-19T15:12:06.454Z,96889.14
2019-05-19T15:14:38.300Z,96889.14
2019-05-19T15:17:10.094Z,96887.72
2019-05-19T15:19:41.842Z,96897.22
2019-05-19T15:22:13.774Z,96888.66
2019-05-19T15:24:45.518Z,96889.66
2019-05-19T15:27:17.228Z,96887.66
2019-05-19T15:29:48.828Z,96885.69
2019-05-19T15:32:20.727Z,96891.09
2019-05-19T15:34:53.134Z,96881.55
2019-05-19T15:37:24.804Z,96883.17
2019-05-19T15:39:56.545Z,96875.06
2019-05-19T15:42:28.268Z,96880.49
2019-05-19T15:44:59.841Z,96876.64
2019-05-19T15:47:33.006Z,96872.41
2019-05-19T15:50:06.368Z,96875.21
2019-05-19T15:52:39.203Z,96879.50
2019-05-19T15:55:11.484Z,96870.33
2019-05-19T15:57:43.210Z,96872.45
2019-05-19T16:00:15.553Z,96870.33
2019-05-19T16:02:47.433Z,96868.89
2019-05-19T16:05:19.333Z,96866.22
2019-05-19T16:07:52.179Z,96858.89
2019-05-19T16:10:23.936Z,96870.70
2019-05-19T16:12:55.789Z,96867.42
2019-05-19T16:15:28.463Z,96868.94
2019-05-19T16:18:00.189Z,96872.28
2019-05-19T16:20:31.697Z,96870.70
2019-05-19T16:23:03.532Z,96876.60
2019-05-19T16:25:35.199Z,96872.61
2019-05-19T16:28:07.055Z,96871.81
2019-05-19T16:30:38.760Z,96874.94
2019-05-19T16:33:12.339Z,96863.91
2019-05-19T16:35:43.963Z,96876.47
2019-05-19T16:38:16.931Z,96877.20
2019-05-19T16:40:48.499Z,96873.86
2019-05-19T16:43:21.497Z,96881.56
2019-05-19T16:45:53.151Z,96883.89
2019-05-19T16:48:24.752Z,96881.72
2019-05-19T16:50:57.861Z,96883.53
2019-05-19T16:53:29.237Z,96879.84
2019-05-19T16:56:02.466Z,96879.67
2019-05-19T16:58:44.953Z,96886.03
2019-05-19T17:01:07.870Z,96888.09
2019-05-19T17:03:39.447Z,96885.00
2019-05-19T17:06:11.057Z,96889.25
2019-05-19T17:08:42.559Z,96886.68
2019-05-19T17:11:18.489Z,96883.09
2019-05-19T17:13:47.448Z,96878.90
2019-05-19T17:16:20.149Z,96881.50
2019-05-19T17:18:51.676Z,96882.48
2019-05-19T17:21:23.349Z,96880.98
2019-05-19T17:23:55.119Z,96879.44
2019-05-19T17:26:28.382Z,96880.28
2019-05-19T17:29:01.990Z,96884.41
2019-05-19T17:31:41.281Z,96882.56
2019-05-19T17:34:15.276Z,96880.09
2019-05-19T17:36:46.970Z,96877.98
2019-05-19T17:39:22.001Z,96878.88
2019-05-19T17:41:54.090Z,96880.19
2019-05-19T17:44:27.951Z,96876.63
2019-05-19T17:46:59.577Z,96881.30
2019-05-19T17:49:31.209Z,96878.53
2019-05-19T17:52:03.132Z,96874.06
2019-05-19T17:54:34.863Z,96880.88
2019-05-19T17:57:06.768Z,96879.55
2019-05-19T17:59:40.228Z,96878.58
2019-05-19T18:02:11.855Z,96887.04
2019-05-19T18:04:43.568Z,96885.05
2019-05-19T18:07:16.223Z,96889.92
2019-05-19T18:09:47.870Z,96888.07
2019-05-19T18:12:22.729Z,96884.67
2019-05-19T18:14:54.480Z,96888.27
2019-05-19T18:17:26.728Z,96878.83
2019-05-19T18:19:58.860Z,96881.02
2019-05-19T18:22:30.674Z,96879.75
2019-05-19T18:25:02.831Z,96876.53
2019-05-19T18:27:34.449Z,96883.73
2019-05-19T18:30:06.278Z,96889.14
2019-05-19T18:32:37.829Z,96893.91
2019-05-19T18:35:09.396Z,96897.55
2019-05-19T18:37:41.039Z,96897.89
2019-05-19T18:40:12.568Z,96900.86
2019-05-19T18:42:44.131Z,96898.23
2019-05-19T18:45:16.007Z,96902.32
2019-05-19T18:47:47.623Z,96901.20
2019-05-19T18:50:19.563Z,96899.44
2019-05-19T18:52:51.338Z,96903.53
2019-05-19T18:55:23.016Z,96903.43
2019-05-19T18:57:54.477Z,96907.45
2019-05-19T19:00:36.867Z,96900.78
2019-05-19T19:03:09.091Z,96903.25
2019-05-19T19:05:40.784Z,96904.45
2019-05-19T19:08:12.195Z,96902.21
2019-05-19T19:10:43.899Z,96895.95
2019-05-19T19:13:15.415Z,96891.59
2019-05-19T19:15:47.185Z,96899.42
2019-05-19T19:18:18.790Z,96898.30
2019-05-19T19:20:51.732Z,96891.03
2019-05-19T19:23:24.421Z,96880.39
2019-05-19T19:25:56.112Z,96879.38
2019-05-19T19:28:27.715Z,96879.91
2019-05-19T19:30:59.670Z,96872.28
2019-05-19T19:33:31.210Z,96875.65
2019-05-19T19:36:02.891Z,96871.69
2019-05-19T19:38:36.150Z,96865.77
2019-05-19T19:41:07.868Z,96862.31
2019-05-19T19:43:39.679Z,96857.89
2019-05-19T19:46:11.260Z,96856.52
2019-05-19T19:48:42.887Z,96851.60
2019-05-19T19:51:14.441Z,96853.06
2019-05-19T19:53:46.251Z,96849.95
2019-05-19T19:56:17.893Z,96843.47
2019-05-19T19:58:50.518Z,96833.95
2019-05-19T20:01:22.244Z,96835.11
2019-05-19T20:03:53.958Z,96836.98
2019-05-19T20:06:27.045Z,96839.27
2019-05-19T20:08:58.629Z,96837.69
2019-05-19T20:11:30.458Z,96838.05
2019-05-19T20:14:02.146Z,96838.39
2019-05-19T20:16:33.823Z,96839.70
2019-05-19T20:19:05.744Z,96843.69
2019-05-19T20:21:37.362Z,96844.82
2019-05-19T20:24:09.304Z,96840.40
2019-05-19T20:26:40.842Z,96833.84
2019-05-19T20:29:13.465Z,96832.87
2019-05-19T20:31:45.092Z,96832.69
2019-05-19T20:34:16.747Z,96828.57
2019-05-19T20:36:48.395Z,96819.76
2019-05-19T20:39:20.333Z,96816.09
2019-05-19T20:41:51.923Z,96814.60
2019-05-19T20:44:23.586Z,96814.45
2019-05-19T20:46:57.594Z,96813.26
2019-05-19T20:49:29.201Z,96808.72
2019-05-19T20:52:01.417Z,96809.84
2019-05-19T20:54:33.536Z,96813.89
2019-05-19T20:57:05.247Z,96819.10
2019-05-19T20:59:38.318Z,96819.59
2019-05-19T21:02:11.252Z,96819.44
2019-05-19T21:04:42.854Z,96824.91
2019-05-19T21:07:14.802Z,96825.73
2019-05-19T21:09:46.418Z,96826.41
2019-05-19T21:12:18.117Z,96812.47
2019-05-19T21:14:50.694Z,96818.05
2019-05-19T21:17:22.738Z,96812.77
2019-05-19T21:19:55.095Z,96812.43
2019-05-19T21:22:29.128Z,96808.16
2019-05-19T21:25:00.922Z,96806.84
2019-05-19T21:27:33.405Z,96808.80
2019-05-19T21:30:06.009Z,96811.09
2019-05-19T21:32:37.692Z,96809.63
2019-05-19T21:35:09.372Z,96807.89
2019-05-19T21:37:40.984Z,96811.30
2019-05-19T21:40:13.739Z,96798.23
2019-05-19T21:42:45.559Z,96801.00
2019-05-19T21:45:17.267Z,96805.27
2019-05-19T21:47:48.915Z,96811.16
2019-05-19T21:50:20.964Z,96807.56
2019-05-19T21:52:55.326Z,96804.97
2019-05-19T21:55:28.041Z,96803.17
2019-05-19T21:57:59.755Z,96801.98
2019-05-19T22:00:33.233Z,96803.62
2019-05-19T22:03:05.309Z,96807.52
2019-05-19T22:05:52.519Z,96807.59
2019-05-19T22:08:16.048Z,96816.13
2019-05-19T22:10:47.906Z,96814.18
2019-05-19T22:13:19.695Z,96816.31
2019-05-19T22:15:52.032Z,96815.83
2019-05-19T22:18:24.689Z,96811.89
2019-05-19T22:20:56.314Z,96815.83
2019-05-19T22:23:28.520Z,96819.23
2019-05-19T22:26:00.632Z,96815.83
2019-05-19T22:28:32.806Z,96814.52
2019-05-19T22:31:04.979Z,96809.36
2019-05-19T22:33:36.682Z,96810.00
2019-05-19T22:36:08.363Z,96809.63
2019-05-19T22:38:42.138Z,96803.92
2019-05-19T22:41:13.906Z,96811.09
2019-05-19T22:43:45.506Z,96819.59
2019-05-19T22:46:17.246Z,96807.83
2019-05-19T22:48:48.883Z,96802.77
2019-05-19T22:51:22.849Z,96806.70
2019-05-19T22:53:54.729Z,96807.83
2019-05-19T22:56:30.962Z,96810.91
2019-05-19T22:59:02.793Z,96817.98
2019-05-19T23:01:34.449Z,96815.02
2019-05-19T23:04:06.844Z,96808.80
2019-05-19T23:06:38.624Z,96804.23
2019-05-19T23:09:10.869Z,96800.41
2019-05-19T23:11:43.149Z,96796.66
2019-05-19T23:14:15.030Z,96806.48
2019-05-19T23:16:46.826Z,96818.47
2019-05-19T23:19:18.584Z,96818.80
2019-05-19T23:21:50.435Z,96816.67
2019-05-19T23:24:23.924Z,96817.98
2019-05-19T23:26:56.491Z,96816.03
2019-05-19T23:29:28.283Z,96815.55
2019-05-19T23:32:07.224Z,96816.18
2019-05-19T23:34:34.657Z,96812.09
2019-05-19T23:37:06.521Z,96813.67
2019-05-19T23:39:39.216Z,96816.67
2019-05-19T23:42:11.235Z,96814.53
2019-05-19T23:44:42.976Z,96812.84
2019-05-19T23:47:16.891Z,96814.83
2019-05-19T23:49:48.603Z,96828.84
2019-05-19T23:52:20.294Z,96829.66
2019-05-19T23:54:51.984Z,96832.20
2019-05-19T23:57:23.806Z,96827.02
2019-05-19T23:59:55.474Z,96830.30
